createdAt,value
2023-05-05T00:01:54.248Z,102111.38
2023-05-05T00:04:25.706Z,102118.75
2023-05-05T00:06:56.826Z,102112.22
2023-05-05T00:09:28.124Z,102108.16
2023-05-05T00:11:59.697Z,102121.84
2023-05-05T00:14:31.177Z,102121.38
2023-05-05T00:17:02.307Z,102115.75
2023-05-05T00:19:34.063Z,102116.75
2023-05-05T00:22:05.806Z,102121.91
2023-05-05T00:24:37.563Z,102122.81
2023-05-05T00:27:08.210Z,102113.56
2023-05-05T00:29:39.803Z,102116.09
2023-05-05T00:32:11.139Z,102105.03
2023-05-05T00:34:42.428Z,102098.44
2023-05-05T00:37:13.834Z,102102.34
2023-05-05T00:39:45.947Z,102101.47
2023-05-05T00:42:17.204Z,102095.84
2023-05-05T00:44:48.604Z,102085.44
2023-05-05T00:47:20.013Z,102083.59
2023-05-05T00:49:50.822Z,102077.25
2023-05-05T00:52:22.558Z,102070.19
2023-05-05T00:54:53.693Z,102076.09
2023-05-05T00:57:24.747Z,102061.25
2023-05-05T00:59:56.874Z,102075.81
2023-05-05T01:02:27.318Z,102068.91
2023-05-05T01:04:58.889Z,102060.66
2023-05-05T01:07:39.037Z,102057.16
2023-05-05T01:10:20.135Z,102055.97
2023-05-05T01:13:14.695Z,102049.72
2023-05-05T01:16:13.350Z,102054.03
2023-05-05T01:19:31.218Z,102053.94
2023-05-05T01:22:04.942Z,102062.38
2023-05-05T01:24:49.151Z,102061.50
2023-05-05T01:28:07.796Z,102071.16
2023-05-05T01:31:15.242Z,102069.84
2023-05-05T01:34:00.665Z,102078.03
2023-05-05T01:36:39.197Z,102066.47
2023-05-05T01:39:14.840Z,102051.84
2023-05-05T01:41:49.501Z,102038.84
2023-05-05T01:44:21.898Z,102047.16
2023-05-05T01:46:54.944Z,102044.78
2023-05-05T01:49:26.791Z,102042.91
2023-05-05T01:51:59.251Z,102042.25
2023-05-05T01:54:32.970Z,102049.69
2023-05-05T01:57:06.502Z,102039.50
2023-05-05T01:59:40.457Z,102060.81
2023-05-05T02:02:13.568Z,102047.63
2023-05-05T02:04:46.413Z,102072.69
2023-05-05T02:07:18.309Z,102073.22
2023-05-05T02:09:50.965Z,102078.03
2023-05-05T02:12:22.902Z,102075.69
2023-05-05T02:14:55.148Z,102077.38
2023-05-05T02:17:27.543Z,102061.91
2023-05-05T02:20:00.953Z,102069.25
2023-05-05T02:22:33.130Z,102069.72
2023-05-05T02:25:05.373Z,102054.09
2023-05-05T02:27:38.552Z,102051.19
2023-05-05T02:30:12.595Z,102053.00
2023-05-05T02:32:49.263Z,102059.53
2023-05-05T02:35:24.685Z,102066.88
2023-05-05T02:38:04.110Z,102075.94
2023-05-05T02:40:42.183Z,102068.84
2023-05-05T02:43:19.058Z,102069.97
2023-05-05T02:45:50.865Z,102062.69
2023-05-05T02:48:23.154Z,102073.97
2023-05-05T02:50:56.093Z,102059.09
2023-05-05T02:53:35.357Z,102046.28
2023-05-05T02:56:46.681Z,102054.28
2023-05-05T02:59:54.518Z,102052.16
2023-05-05T03:02:46.935Z,102053.03
2023-05-05T03:05:37.518Z,102041.75
2023-05-05T03:08:20.382Z,102042.25
2023-05-05T03:11:23.277Z,102044.78
2023-05-05T03:14:00.834Z,102045.84
2023-05-05T03:16:32.431Z,102047.16
2023-05-05T03:19:05.373Z,102049.91
2023-05-05T03:21:36.994Z,102052.69
2023-05-05T03:24:21.625Z,102062.03
2023-05-05T03:27:02.007Z,102055.19
2023-05-05T03:29:38.265Z,102061.16
2023-05-05T03:32:14.198Z,102051.28
2023-05-05T03:34:46.044Z,102055.34
2023-05-05T03:37:18.120Z,102053.13
2023-05-05T03:39:50.437Z,102056.47
2023-05-05T03:42:21.547Z,102054.78
2023-05-05T03:44:55.270Z,102059.47
2023-05-05T03:47:27.214Z,102057.00
2023-05-05T03:49:59.949Z,102063.25
2023-05-05T03:52:31.032Z,102061.31
2023-05-05T03:55:02.460Z,102067.91
2023-05-05T03:57:35.655Z,102072.28
2023-05-05T04:00:07.551Z,102070.09
2023-05-05T04:02:45.134Z,102072.00
2023-05-05T04:05:21.311Z,102076.34
2023-05-05T04:07:53.200Z,102066.44
2023-05-05T04:10:23.999Z,102070.81
2023-05-05T04:12:55.311Z,102074.41
2023-05-05T04:15:26.816Z,102086.44
2023-05-05T04:17:58.731Z,102076.06
2023-05-05T04:20:33.593Z,102089.09
2023-05-05T04:23:04.723Z,102089.63
2023-05-05T04:25:35.711Z,102097.28
2023-05-05T04:28:08.012Z,102103.31
2023-05-05T04:30:40.227Z,102109.06
2023-05-05T04:33:11.610Z,102117.88
2023-05-05T04:35:42.683Z,102125.34
2023-05-05T04:38:14.450Z,102128.94
2023-05-05T04:40:45.990Z,102123.41
2023-05-05T04:43:17.099Z,102125.25
2023-05-05T04:45:55.894Z,102113.53
2023-05-05T04:48:31.571Z,102120.28
2023-05-05T04:51:07.425Z,102117.00
2023-05-05T04:53:40.085Z,102127.13
2023-05-05T04:56:11.192Z,102114.41
2023-05-05T04:58:42.953Z,102113.53
2023-05-05T05:01:14.085Z,102114.63
2023-05-05T05:03:45.687Z,102123.66
2023-05-05T05:06:17.287Z,102113.84
2023-05-05T05:08:48.701Z,102116.16
2023-05-05T05:11:20.162Z,102119.16
2023-05-05T05:13:51.493Z,102111.88
2023-05-05T05:16:23.032Z,102107.59
2023-05-05T05:18:53.358Z,102113.03
2023-05-05T05:21:24.818Z,102110.00
2023-05-05T05:23:56.469Z,102118.72
2023-05-05T05:26:28.653Z,102116.00
2023-05-05T05:29:00.898Z,102126.38
2023-05-05T05:31:32.849Z,102122.53
2023-05-05T05:34:04.855Z,102131.50
2023-05-05T05:36:35.969Z,102127.53
2023-05-05T05:39:07.026Z,102140.59
2023-05-05T05:41:37.981Z,102141.22
2023-05-05T05:44:09.150Z,102137.88
2023-05-05T05:46:40.861Z,102137.28
2023-05-05T05:49:12.374Z,102141.06
2023-05-05T05:51:46.657Z,102134.31
2023-05-05T05:54:23.999Z,102132.09
2023-05-05T05:56:55.135Z,102130.81
2023-05-05T05:59:26.212Z,102131.78
2023-05-05T06:01:58.395Z,102125.56
2023-05-05T06:04:30.165Z,102132.19
2023-05-05T06:07:02.074Z,102128.84
2023-05-05T06:09:33.298Z,102119.81
2023-05-05T06:12:05.386Z,102138.75
2023-05-05T06:14:37.222Z,102136.78
2023-05-05T06:17:08.636Z,102141.16
2023-05-05T06:19:42.449Z,102143.63
2023-05-05T06:22:14.212Z,102142.72
2023-05-05T06:24:46.697Z,102156.34
2023-05-05T06:27:18.416Z,102149.84
2023-05-05T06:29:50.604Z,102151.47
2023-05-05T06:32:21.968Z,102153.88
2023-05-05T06:34:53.222Z,102153.63
2023-05-05T06:37:24.461Z,102156.94
2023-05-05T06:39:55.459Z,102153.88
2023-05-05T06:42:26.732Z,102148.34
2023-05-05T06:45:00.852Z,102158.00
2023-05-05T06:47:32.069Z,102172.75
2023-05-05T06:50:03.280Z,102160.06
2023-05-05T06:52:34.622Z,102170.44
2023-05-05T06:55:05.993Z,102168.22
2023-05-05T06:57:37.247Z,102175.38
2023-05-05T07:00:12.724Z,102177.19
2023-05-05T07:02:44.021Z,102179.19
2023-05-05T07:05:14.745Z,102172.91
2023-05-05T07:07:59.104Z,102165.81
2023-05-05T07:10:30.708Z,102176.19
2023-05-05T07:13:01.979Z,102160.63
2023-05-05T07:15:33.190Z,102175.94
2023-05-05T07:18:04.886Z,102183.03
2023-05-05T07:20:36.609Z,102183.63
2023-05-05T07:23:07.742Z,102185.22
2023-05-05T07:25:39.737Z,102192.22
2023-05-05T07:28:10.780Z,102190.91
2023-05-05T07:30:42.396Z,102182.97
2023-05-05T07:33:13.724Z,102189.00
2023-05-05T07:35:45.023Z,102196.91
2023-05-05T07:38:16.162Z,102203.19
2023-05-05T07:40:47.456Z,102199.16
2023-05-05T07:43:18.881Z,102203.72
2023-05-05T07:45:50.206Z,102201.78
2023-05-05T07:48:21.508Z,102210.81
2023-05-05T07:50:54.056Z,102211.22
2023-05-05T07:53:25.624Z,102212.94
2023-05-05T07:55:57.102Z,102216.78
2023-05-05T07:58:28.794Z,102208.59
2023-05-05T08:01:00.945Z,102222.81
2023-05-05T08:03:32.677Z,102228.00
2023-05-05T08:06:13.169Z,102226.34
2023-05-05T08:08:45.109Z,102221.66
2023-05-05T08:11:17.228Z,102225.53
2023-05-05T08:13:48.957Z,102230.69
2023-05-05T08:16:20.576Z,102234.22
2023-05-05T08:18:51.905Z,102233.66
2023-05-05T08:21:23.123Z,102235.53
2023-05-05T08:23:54.181Z,102238.19
2023-05-05T08:26:25.032Z,102247.66
2023-05-05T08:28:58.150Z,102248.59
2023-05-05T08:31:37.184Z,102248.84
2023-05-05T08:34:08.955Z,102255.28
2023-05-05T08:36:40.334Z,102259.56
2023-05-05T08:39:11.466Z,102259.25
2023-05-05T08:41:42.827Z,102257.53
2023-05-05T08:44:14.375Z,102259.25
2023-05-05T08:46:46.451Z,102257.34
2023-05-05T08:49:18.699Z,102261.69
2023-05-05T08:51:50.336Z,102270.06
2023-05-05T08:54:22.730Z,102272.56
2023-05-05T08:56:54.898Z,102274.50
2023-05-05T08:59:26.802Z,102284.56
2023-05-05T09:02:02.268Z,102275.59
2023-05-05T09:04:34.272Z,102280.78
2023-05-05T09:07:05.712Z,102284.81
2023-05-05T09:09:37.343Z,102284.00
2023-05-05T09:12:08.896Z,102282.09
2023-05-05T09:14:40.289Z,102278.81
2023-05-05T09:17:27.909Z,102283.44
2023-05-05T09:20:19.627Z,102283.69
2023-05-05T09:22:51.066Z,102283.69
2023-05-05T09:25:22.617Z,102283.44
2023-05-05T09:27:53.515Z,102292.44
2023-05-05T09:30:28.645Z,102282.84
2023-05-05T09:33:00.849Z,102286.09
2023-05-05T09:35:32.402Z,102283.09
2023-05-05T09:38:13.869Z,102280.44
2023-05-05T09:40:53.437Z,102271.94
2023-05-05T09:43:25.465Z,102283.69
2023-05-05T09:46:09.876Z,102284.69
2023-05-05T09:48:41.425Z,102290.47
2023-05-05T09:51:12.951Z,102282.28
2023-05-05T09:53:44.306Z,102282.19
2023-05-05T09:56:15.452Z,102288.53
2023-05-05T09:58:46.497Z,102290.38
2023-05-05T10:01:27.241Z,102295.25
2023-05-05T10:03:58.985Z,102288.22
2023-05-05T10:06:45.463Z,102287.41
2023-05-05T10:09:16.841Z,102294.00
2023-05-05T10:11:48.998Z,102296.97
2023-05-05T10:14:21.098Z,102289.63
2023-05-05T10:16:54.514Z,102293.66
2023-05-05T10:19:26.544Z,102301.59
2023-05-05T10:22:01.844Z,102306.47
2023-05-05T10:24:39.298Z,102303.00
2023-05-05T10:27:19.837Z,102294.06
2023-05-05T10:30:00.161Z,102302.53
2023-05-05T10:32:51.944Z,102300.94
2023-05-05T10:35:29.490Z,102300.69
2023-05-05T10:38:01.211Z,102296.22
2023-05-05T10:40:33.278Z,102295.72
2023-05-05T10:43:05.196Z,102299.03
2023-05-05T10:45:36.525Z,102290.88
2023-05-05T10:48:08.640Z,102285.97
2023-05-05T10:50:46.876Z,102281.44
2023-05-05T10:53:38.917Z,102273.03
2023-05-05T10:56:29.017Z,102278.25
2023-05-05T10:59:00.969Z,102285.25
2023-05-05T11:01:34.689Z,102287.41
2023-05-05T11:04:25.673Z,102289.91
2023-05-05T11:07:14.798Z,102294.06
2023-05-05T11:10:03.639Z,102288.91
2023-05-05T11:13:04.080Z,102294.91
2023-05-05T11:15:39.012Z,102294.59
2023-05-05T11:18:10.326Z,102286.97
2023-05-05T11:20:41.615Z,102293.50
2023-05-05T11:23:15.226Z,102294.66
2023-05-05T11:25:48.034Z,102281.38
2023-05-05T11:28:21.306Z,102290.22
2023-05-05T11:31:02.926Z,102301.16
2023-05-05T11:33:42.725Z,102299.84
2023-05-05T11:36:19.307Z,102294.72
2023-05-05T11:39:01.606Z,102296.44
2023-05-05T11:41:54.559Z,102295.44
2023-05-05T11:44:37.228Z,102288.47
2023-05-05T11:47:08.481Z,102280.69
2023-05-05T11:49:41.581Z,102284.19
2023-05-05T11:52:14.692Z,102278.44
2023-05-05T11:54:51.953Z,102269.28
2023-05-05T11:57:30.217Z,102278.78
2023-05-05T12:00:06.634Z,102290.75
2023-05-05T12:02:44.220Z,102300.84
2023-05-05T12:05:22.542Z,102295.06
2023-05-05T12:08:00.196Z,102295.81
2023-05-05T12:10:31.756Z,102296.00
2023-05-05T12:13:03.023Z,102301.53
2023-05-05T12:15:35.313Z,102299.94
2023-05-05T12:18:07.884Z,102316.06
2023-05-05T12:20:39.104Z,102317.38
2023-05-05T12:23:13.848Z,102315.13
2023-05-05T12:25:47.115Z,102305.31
2023-05-05T12:28:18.492Z,102305.88
2023-05-05T12:31:01.766Z,102307.78
2023-05-05T12:33:33.522Z,102310.19
2023-05-05T12:36:05.846Z,102309.13
2023-05-05T12:38:38.994Z,102307.72
2023-05-05T12:41:10.365Z,102306.88
2023-05-05T12:43:41.298Z,102295.41
2023-05-05T12:46:14.080Z,102295.41
2023-05-05T12:48:47.952Z,102294.50
2023-05-05T12:51:24.898Z,102303.91
2023-05-05T12:54:09.953Z,102307.81
2023-05-05T12:56:42.203Z,102301.09
2023-05-05T12:59:24.035Z,102315.22
2023-05-05T13:01:55.469Z,102310.78
2023-05-05T13:04:28.914Z,102309.03
2023-05-05T13:07:21.072Z,102304.69
2023-05-05T13:09:53.552Z,102293.63
2023-05-05T13:12:25.137Z,102308.38
2023-05-05T13:14:56.698Z,102299.75
2023-05-05T13:17:28.252Z,102312.19
2023-05-05T13:19:59.610Z,102306.25
2023-05-05T13:22:32.179Z,102308.72
2023-05-05T13:25:03.564Z,102319.78
2023-05-05T13:27:35.685Z,102320.91
2023-05-05T13:30:07.618Z,102318.50
2023-05-05T13:32:39.063Z,102331.75
2023-05-05T13:35:11.711Z,102321.41
2023-05-05T13:37:45.856Z,102320.84
2023-05-05T13:40:17.699Z,102322.25
2023-05-05T13:42:49.531Z,102318.59
2023-05-05T13:45:21.180Z,102314.09
2023-05-05T13:47:52.738Z,102318.78
2023-05-05T13:50:25.259Z,102316.41
2023-05-05T13:52:56.680Z,102312.84
2023-05-05T13:55:29.740Z,102311.94
2023-05-05T13:58:01.427Z,102310.28
2023-05-05T14:00:33.248Z,102312.75
2023-05-05T14:03:04.723Z,102317.16
2023-05-05T14:05:36.618Z,102310.28
2023-05-05T14:08:08.104Z,102316.53
2023-05-05T14:10:39.611Z,102310.53
2023-05-05T14:13:11.353Z,102312.41
2023-05-05T14:15:42.643Z,102311.38
2023-05-05T14:18:13.716Z,102311.09
2023-05-05T14:20:45.057Z,102318.19
2023-05-05T14:23:16.348Z,102310.72
2023-05-05T14:25:47.820Z,102321.19
2023-05-05T14:28:18.593Z,102322.59
2023-05-05T14:30:50.097Z,102322.63
2023-05-05T14:33:21.750Z,102327.84
2023-05-05T14:35:52.931Z,102324.38
2023-05-05T14:38:24.260Z,102331.13
2023-05-05T14:40:55.915Z,102328.06
2023-05-05T14:43:27.179Z,102329.25
2023-05-05T14:46:01.683Z,102338.22
2023-05-05T14:48:33.037Z,102322.97
2023-05-05T14:51:04.368Z,102326.66
2023-05-05T14:53:37.452Z,102320.75
2023-05-05T14:56:10.361Z,102317.69
2023-05-05T14:58:41.264Z,102328.31
2023-05-05T15:01:12.627Z,102330.22
2023-05-05T15:03:43.730Z,102329.38
2023-05-05T15:06:15.105Z,102324.69
2023-05-05T15:08:46.694Z,102318.06
2023-05-05T15:11:18.148Z,102318.91
2023-05-05T15:13:49.177Z,102314.31
2023-05-05T15:16:20.498Z,102318.00
2023-05-05T15:18:51.397Z,102314.31
2023-05-05T15:21:23.022Z,102304.38
2023-05-05T15:23:54.639Z,102302.13
2023-05-05T15:26:25.859Z,102310.97
2023-05-05T15:28:57.484Z,102313.69
2023-05-05T15:31:28.514Z,102311.81
2023-05-05T15:33:59.561Z,102308.50
2023-05-05T15:36:30.830Z,102302.25
2023-05-05T15:39:02.338Z,102308.84
2023-05-05T15:41:36.360Z,102302.81
2023-05-05T15:44:07.703Z,102308.41
2023-05-05T15:46:38.889Z,102299.28
2023-05-05T15:49:10.054Z,102294.97
2023-05-05T15:51:41.925Z,102300.94
2023-05-05T15:54:12.997Z,102305.06
2023-05-05T15:56:47.469Z,102299.28
2023-05-05T15:59:19.335Z,102299.84
2023-05-05T16:01:50.611Z,102288.88
2023-05-05T16:04:22.010Z,102297.53
2023-05-05T16:06:53.101Z,102285.72
2023-05-05T16:09:24.491Z,102287.72
2023-05-05T16:11:56.420Z,102285.72
2023-05-05T16:14:29.311Z,102285.53
2023-05-05T16:17:03.535Z,102284.69
2023-05-05T16:19:35.259Z,102282.09
2023-05-05T16:22:07.835Z,102278.69
2023-05-05T16:24:39.011Z,102284.47
2023-05-05T16:27:09.967Z,102288.72
2023-05-05T16:29:41.314Z,102286.34
2023-05-05T16:32:12.514Z,102292.47
2023-05-05T16:34:43.768Z,102297.84
2023-05-05T16:37:14.946Z,102292.28
2023-05-05T16:39:46.130Z,102305.28
2023-05-05T16:42:18.188Z,102300.00
2023-05-05T16:44:49.295Z,102299.59
2023-05-05T16:47:20.892Z,102308.28
2023-05-05T16:49:54.047Z,102310.66
2023-05-05T16:52:25.678Z,102311.00
2023-05-05T16:54:58.164Z,102312.75
2023-05-05T16:57:29.596Z,102308.09
2023-05-05T17:00:00.840Z,102320.97
2023-05-05T17:02:34.476Z,102323.97
2023-05-05T17:05:06.157Z,102317.09
2023-05-05T17:07:37.421Z,102326.00
2023-05-05T17:10:09.608Z,102319.97
2023-05-05T17:12:41.109Z,102324.81
2023-05-05T17:15:12.474Z,102322.66
2023-05-05T17:17:43.990Z,102323.03
2023-05-05T17:20:15.751Z,102332.75
2023-05-05T17:22:48.128Z,102332.75
2023-05-05T17:25:18.660Z,102334.75
2023-05-05T17:27:50.608Z,102329.78
2023-05-05T17:30:22.219Z,102329.91
2023-05-05T17:32:54.050Z,102329.25
2023-05-05T17:35:25.273Z,102332.75
2023-05-05T17:37:56.719Z,102339.28
2023-05-05T17:40:28.254Z,102331.81
2023-05-05T17:43:00.348Z,102329.09
2023-05-05T17:45:32.137Z,102328.75
2023-05-05T17:48:03.905Z,102337.47
2023-05-05T17:50:35.216Z,102328.06
2023-05-05T17:53:06.796Z,102327.22
2023-05-05T17:55:38.451Z,102327.13
2023-05-05T17:58:09.764Z,102332.56
2023-05-05T18:00:41.294Z,102341.41
2023-05-05T18:03:12.756Z,102344.13
2023-05-05T18:05:44.370Z,102344.25
2023-05-05T18:08:15.541Z,102349.22
2023-05-05T18:10:46.809Z,102351.59
2023-05-05T18:13:18.382Z,102347.81
2023-05-05T18:15:49.600Z,102355.97
2023-05-05T18:18:20.970Z,102352.53
2023-05-05T18:20:52.331Z,102362.22
2023-05-05T18:23:23.470Z,102368.97
2023-05-05T18:25:54.670Z,102366.75
2023-05-05T18:28:25.832Z,102372.75
2023-05-05T18:30:57.315Z,102369.56
2023-05-05T18:33:28.628Z,102380.56
2023-05-05T18:35:59.782Z,102376.63
2023-05-05T18:38:31.150Z,102384.09
2023-05-05T18:41:02.571Z,102370.38
2023-05-05T18:43:34.832Z,102390.59
2023-05-05T18:46:06.483Z,102391.88
2023-05-05T18:48:37.700Z,102392.59
2023-05-05T18:51:09.163Z,102393.88
2023-05-05T18:53:40.181Z,102395.06
2023-05-05T18:56:11.494Z,102401.50
2023-05-05T18:58:42.688Z,102410.38
2023-05-05T19:01:14.497Z,102408.09
2023-05-05T19:03:52.372Z,102405.88
2023-05-05T19:06:23.674Z,102402.53
2023-05-05T19:08:55.393Z,102413.53
2023-05-05T19:11:27.157Z,102408.25
2023-05-05T19:13:58.425Z,102408.66
2023-05-05T19:16:30.239Z,102405.38
2023-05-05T19:19:02.370Z,102412.97
2023-05-05T19:21:33.766Z,102418.06
2023-05-05T19:24:05.666Z,102438.25
2023-05-05T19:26:37.269Z,102434.56
2023-05-05T19:29:08.599Z,102435.19
2023-05-05T19:31:40.008Z,102433.53
2023-05-05T19:34:11.120Z,102433.19
2023-05-05T19:36:42.959Z,102437.06
2023-05-05T19:39:15.632Z,102445.47
2023-05-05T19:41:47.433Z,102448.91
2023-05-05T19:44:19.636Z,102452.69
2023-05-05T19:46:51.064Z,102454.69
2023-05-05T19:49:22.454Z,102445.84
2023-05-05T19:51:55.868Z,102451.13
2023-05-05T19:54:27.805Z,102453.97
2023-05-05T19:56:59.485Z,102456.47
2023-05-05T19:59:30.350Z,102453.25
2023-05-05T20:02:01.606Z,102453.03
2023-05-05T20:04:32.475Z,102442.75
2023-05-05T20:07:05.149Z,102463.28
2023-05-05T20:09:36.553Z,102460.00
2023-05-05T20:12:07.480Z,102460.19
2023-05-05T20:14:39.086Z,102455.22
2023-05-05T20:17:10.536Z,102452.38
2023-05-05T20:19:41.941Z,102447.84
2023-05-05T20:22:13.179Z,102454.31
2023-05-05T20:24:45.365Z,102454.19
2023-05-05T20:27:16.589Z,102464.47
2023-05-05T20:29:47.851Z,102468.28
2023-05-05T20:32:22.053Z,102462.22
2023-05-05T20:34:53.349Z,102466.22
2023-05-05T20:37:24.915Z,102452.75
2023-05-05T20:39:58.247Z,102463.84
2023-05-05T20:42:31.022Z,102463.28
2023-05-05T20:45:03.866Z,102459.72
2023-05-05T20:47:37.581Z,102456.88
2023-05-05T20:50:10.136Z,102468.63
2023-05-05T20:52:41.604Z,102473.50
2023-05-05T20:55:13.177Z,102467.34
2023-05-05T20:57:44.476Z,102465.06
2023-05-05T21:00:16.176Z,102465.66
2023-05-05T21:02:47.680Z,102470.53
2023-05-05T21:05:18.276Z,102471.94
2023-05-05T21:07:49.279Z,102478.69
2023-05-05T21:10:20.728Z,102479.31
2023-05-05T21:12:52.709Z,102481.75
2023-05-05T21:15:24.033Z,102485.00
2023-05-05T21:17:55.789Z,102477.91
2023-05-05T21:20:27.141Z,102486.13
2023-05-05T21:22:59.449Z,102495.72
2023-05-05T21:25:32.187Z,102497.03
2023-05-05T21:28:03.399Z,102498.53
2023-05-05T21:30:34.863Z,102502.44
2023-05-05T21:33:06.324Z,102497.72
2023-05-05T21:35:37.474Z,102505.72
2023-05-05T21:38:08.503Z,102499.63
2023-05-05T21:40:39.740Z,102503.41
2023-05-05T21:43:10.793Z,102498.28
2023-05-05T21:45:43.086Z,102505.47
2023-05-05T21:48:14.459Z,102505.88
2023-05-05T21:50:45.736Z,102503.88
2023-05-05T21:53:16.957Z,102507.13
2023-05-05T21:55:49.251Z,102513.34
2023-05-05T21:58:21.894Z,102510.03
2023-05-05T22:00:53.974Z,102515.66
2023-05-05T22:03:25.818Z,102502.34
2023-05-05T22:05:57.390Z,102507.56
2023-05-05T22:08:28.552Z,102502.91
2023-05-05T22:10:59.771Z,102500.44
2023-05-05T22:13:31.003Z,102505.50
2023-05-05T22:16:02.420Z,102520.59
2023-05-05T22:18:33.793Z,102513.22
2023-05-05T22:21:06.476Z,102515.22
2023-05-05T22:23:38.702Z,102513.03
2023-05-05T22:26:12.293Z,102519.69
2023-05-05T22:28:43.505Z,102513.41
2023-05-05T22:31:14.832Z,102519.56
2023-05-05T22:33:46.414Z,102515.88
2023-05-05T22:36:17.852Z,102520.78
2023-05-05T22:38:49.110Z,102516.13
2023-05-05T22:41:20.695Z,102517.22
2023-05-05T22:43:51.919Z,102509.50
2023-05-05T22:46:22.851Z,102508.50
2023-05-05T22:48:54.362Z,102503.81
2023-05-05T22:51:25.419Z,102499.50
2023-05-05T22:53:57.169Z,102504.00
2023-05-05T22:56:28.509Z,102522.84
2023-05-05T22:58:59.570Z,102514.09
2023-05-05T23:01:33.091Z,102509.78
2023-05-05T23:04:05.828Z,102509.00
2023-05-05T23:06:37.236Z,102525.38
2023-05-05T23:09:09.009Z,102497.06
2023-05-05T23:11:39.529Z,102512.25
2023-05-05T23:14:10.878Z,102510.06
2023-05-05T23:16:41.968Z,102517.97
2023-05-05T23:19:13.071Z,102514.31
2023-05-05T23:21:52.541Z,102512.00
2023-05-05T23:24:24.655Z,102520.47
2023-05-05T23:26:56.048Z,102529.66
2023-05-05T23:29:27.093Z,102521.84
2023-05-05T23:31:58.974Z,102516.56
2023-05-05T23:34:29.574Z,102521.34
2023-05-05T23:37:01.740Z,102509.19
2023-05-05T23:39:36.248Z,102510.66
2023-05-05T23:42:07.551Z,102515.00
2023-05-05T23:44:38.862Z,102504.63
2023-05-05T23:47:10.972Z,102496.59
2023-05-05T23:49:42.956Z,102505.09
2023-05-05T23:52:14.623Z,102500.59
2023-05-05T23:54:47.328Z,102506.28
2023-05-05T23:57:18.510Z,102499.63
2023-05-05T23:59:50.018Z,102496.78
